createdAt,value
2019-05-20T00:00:31.447Z,100304.33
2019-05-20T00:03:35.150Z,100300.98
2019-05-20T00:06:38.843Z,100293.47
2019-05-20T00:09:42.629Z,100291.67
2019-05-20T00:12:46.311Z,100290.23
2019-05-20T00:15:50.010Z,100285.09
2019-05-20T00:18:53.994Z,100290.53
2019-05-20T00:21:57.960Z,100290.61
2019-05-20T00:25:01.689Z,100295.15
2019-05-20T00:28:05.389Z,100288.31
2019-05-20T00:31:09.078Z,100292.05
2019-05-20T00:34:12.790Z,100292.14
2019-05-20T00:37:16.509Z,100288.59
2019-05-20T00:40:20.212Z,100288.42
2019-05-20T00:43:23.925Z,100283.67
2019-05-20T00:46:27.619Z,100280.80
2019-05-20T00:49:31.731Z,100274.63
2019-05-20T00:52:35.509Z,100274.75
2019-05-20T00:55:40.464Z,100283.09
2019-05-20T00:58:44.150Z,100286.09
2019-05-20T01:01:48.033Z,100285.59
2019-05-20T01:04:51.720Z,100290.14
2019-05-20T01:07:55.406Z,100286.90
2019-05-20T01:10:59.109Z,100294.20
2019-05-20T01:14:02.818Z,100293.12
2019-05-20T01:17:06.516Z,100302.48
2019-05-20T01:20:10.767Z,100305.97
2019-05-20T01:23:14.464Z,100304.19
2019-05-20T01:26:18.407Z,100313.80
2019-05-20T01:29:22.413Z,100305.22
2019-05-20T01:32:26.134Z,100308.09
2019-05-20T01:35:29.830Z,100308.20
2019-05-20T01:38:33.841Z,100316.83
2019-05-20T01:41:37.567Z,100318.73
2019-05-20T01:44:41.264Z,100313.03
2019-05-20T01:47:44.955Z,100315.63
2019-05-20T01:50:48.652Z,100313.78
2019-05-20T01:53:52.384Z,100315.29
2019-05-20T01:56:56.075Z,100311.63
2019-05-20T01:59:59.806Z,100308.85
2019-05-20T02:03:03.505Z,100311.22
2019-05-20T02:06:07.482Z,100310.10
2019-05-20T02:09:11.238Z,100306.44
2019-05-20T02:12:14.938Z,100310.66
2019-05-20T02:15:25.947Z,100307.81
2019-05-20T02:18:29.675Z,100305.53
2019-05-20T02:21:33.358Z,100304.84
2019-05-20T02:24:37.078Z,100303.98
2019-05-20T02:27:40.775Z,100309.69
2019-05-20T02:30:44.477Z,100318.11
2019-05-20T02:33:52.093Z,100316.83
2019-05-20T02:36:54.183Z,100308.58
2019-05-20T02:39:57.873Z,100305.78
2019-05-20T02:43:01.765Z,100310.73
2019-05-20T02:46:06.533Z,100305.30
2019-05-20T02:49:10.306Z,100304.73
2019-05-20T02:52:14.016Z,100294.55
2019-05-20T02:55:17.763Z,100298.86
2019-05-20T02:58:21.486Z,100301.95
2019-05-20T03:01:25.858Z,100300.73
2019-05-20T03:04:29.577Z,100296.27
2019-05-20T03:07:33.272Z,100295.59
2019-05-20T03:10:36.966Z,100296.39
2019-05-20T03:13:41.003Z,100298.31
2019-05-20T03:16:44.746Z,100294.85
2019-05-20T03:19:48.789Z,100296.58
2019-05-20T03:22:52.484Z,100291.97
2019-05-20T03:25:56.426Z,100294.81
2019-05-20T03:29:00.139Z,100299.59
2019-05-20T03:32:03.874Z,100300.00
2019-05-20T03:35:08.171Z,100299.77
2019-05-20T03:38:11.899Z,100308.33
2019-05-20T03:41:15.589Z,100310.97
2019-05-20T03:44:19.390Z,100308.06
2019-05-20T03:47:23.086Z,100303.34
2019-05-20T03:50:26.881Z,100311.25
2019-05-20T03:53:30.575Z,100306.75
2019-05-20T03:56:34.339Z,100313.51
2019-05-20T03:59:38.036Z,100308.25
2019-05-20T04:02:41.721Z,100302.50
2019-05-20T04:05:45.778Z,100302.88
2019-05-20T04:08:49.469Z,100308.84
2019-05-20T04:11:53.160Z,100296.33
2019-05-20T04:14:57.088Z,100301.65
2019-05-20T04:18:00.785Z,100297.44
2019-05-20T04:21:04.495Z,100291.40
2019-05-20T04:24:08.314Z,100293.96
2019-05-20T04:27:12.008Z,100287.31
2019-05-20T04:30:18.990Z,100286.76
2019-05-20T04:33:22.061Z,100290.20
2019-05-20T04:36:25.859Z,100291.87
2019-05-20T04:39:29.906Z,100288.27
2019-05-20T04:42:33.604Z,100284.25
2019-05-20T04:45:37.337Z,100289.12
2019-05-20T04:48:41.024Z,100291.28
2019-05-20T04:51:44.759Z,100296.25
2019-05-20T04:54:48.450Z,100291.12
2019-05-20T04:57:52.179Z,100292.85
2019-05-20T05:00:59.536Z,100292.28
2019-05-20T05:04:06.532Z,100291.89
2019-05-20T05:07:10.321Z,100297.31
2019-05-20T05:10:14.558Z,100295.72
2019-05-20T05:13:18.547Z,100309.08
2019-05-20T05:16:22.968Z,100310.73
2019-05-20T05:19:26.687Z,100308.92
2019-05-20T05:22:30.344Z,100307.35
2019-05-20T05:25:34.718Z,100306.38
2019-05-20T05:28:38.730Z,100308.61
2019-05-20T05:31:42.794Z,100306.23
2019-05-20T05:34:46.504Z,100314.78
2019-05-20T05:37:50.409Z,100312.34
2019-05-20T05:40:54.084Z,100304.13
2019-05-20T05:43:57.796Z,100305.68
2019-05-20T05:47:01.497Z,100309.15
2019-05-20T05:50:05.687Z,100315.51
2019-05-20T05:53:09.383Z,100315.63
2019-05-20T05:56:13.440Z,100310.02
2019-05-20T05:59:17.144Z,100314.63
2019-05-20T06:02:20.909Z,100322.14
2019-05-20T06:05:24.591Z,100320.66
2019-05-20T06:08:28.281Z,100323.98
2019-05-20T06:11:32.021Z,100327.95
2019-05-20T06:14:35.721Z,100326.25
2019-05-20T06:17:39.500Z,100331.11
2019-05-20T06:20:43.209Z,100335.48
2019-05-20T06:23:47.157Z,100339.80
2019-05-20T06:26:50.841Z,100337.61
2019-05-20T06:29:54.537Z,100336.28
2019-05-20T06:32:58.333Z,100334.89
2019-05-20T06:36:02.427Z,100335.11
2019-05-20T06:39:13.723Z,100332.30
2019-05-20T06:42:17.519Z,100330.75
2019-05-20T06:45:21.577Z,100324.87
2019-05-20T06:48:25.273Z,100327.65
2019-05-20T06:51:28.966Z,100329.35
2019-05-20T06:54:32.679Z,100325.25
2019-05-20T06:57:36.367Z,100327.86
2019-05-20T07:00:40.627Z,100331.17
2019-05-20T07:03:44.322Z,100340.81
2019-05-20T07:06:48.022Z,100332.70
2019-05-20T07:09:51.717Z,100328.91
2019-05-20T07:12:55.520Z,100334.62
2019-05-20T07:15:59.527Z,100327.77
2019-05-20T07:19:03.269Z,100326.33
2019-05-20T07:22:07.039Z,100338.48
2019-05-20T07:25:11.050Z,100346.95
2019-05-20T07:28:14.722Z,100347.94
2019-05-20T07:31:18.436Z,100339.33
2019-05-20T07:34:22.212Z,100344.86
2019-05-20T07:37:25.937Z,100347.16
2019-05-20T07:40:33.758Z,100353.52
2019-05-20T07:43:37.458Z,100352.45
2019-05-20T07:46:41.233Z,100359.95
2019-05-20T07:49:45.533Z,100359.47
2019-05-20T07:52:49.247Z,100360.72
2019-05-20T07:56:05.176Z,100359.42
2019-05-20T07:59:12.166Z,100359.31
2019-05-20T08:02:16.199Z,100357.88
2019-05-20T08:05:20.021Z,100351.27
2019-05-20T08:08:23.800Z,100356.42
2019-05-20T08:11:27.683Z,100351.15
2019-05-20T08:14:31.356Z,100351.15
2019-05-20T08:17:35.210Z,100349.71
2019-05-20T08:20:38.911Z,100350.67
2019-05-20T08:23:42.604Z,100358.73
2019-05-20T08:26:46.417Z,100355.41
2019-05-20T08:29:50.170Z,100358.47
2019-05-20T08:32:53.913Z,100355.53
2019-05-20T08:35:57.602Z,100367.48
2019-05-20T08:39:01.601Z,100369.55
2019-05-20T08:42:05.318Z,100356.96
2019-05-20T08:45:09.543Z,100350.57
2019-05-20T08:48:13.262Z,100353.59
2019-05-20T08:51:17.386Z,100357.61
2019-05-20T08:54:21.157Z,100356.00
2019-05-20T08:57:25.101Z,100359.19
2019-05-20T09:00:29.182Z,100358.77
2019-05-20T09:03:32.886Z,100349.13
2019-05-20T09:06:36.571Z,100346.66
2019-05-20T09:09:40.329Z,100353.62
2019-05-20T09:12:44.259Z,100356.40
2019-05-20T09:15:48.072Z,100347.74
2019-05-20T09:18:52.027Z,100350.78
2019-05-20T09:21:56.026Z,100355.78
2019-05-20T09:24:59.910Z,100358.41
2019-05-20T09:28:03.806Z,100355.23
2019-05-20T09:31:07.944Z,100362.45
2019-05-20T09:34:11.660Z,100364.69
2019-05-20T09:37:15.634Z,100361.80
2019-05-20T09:40:37.217Z,100369.89
2019-05-20T09:43:40.995Z,100373.20
2019-05-20T09:46:44.745Z,100361.10
2019-05-20T09:49:48.449Z,100364.77
2019-05-20T09:52:52.147Z,100362.81
2019-05-20T09:55:55.863Z,100361.84
2019-05-20T09:58:59.557Z,100357.18
2019-05-20T10:02:03.282Z,100367.54
2019-05-20T10:05:07.190Z,100365.44
2019-05-20T10:08:10.876Z,100355.64
2019-05-20T10:11:14.735Z,100362.86
2019-05-20T10:14:18.462Z,100357.70
2019-05-20T10:17:22.252Z,100353.80
2019-05-20T10:20:25.954Z,100355.78
2019-05-20T10:23:29.683Z,100366.43
2019-05-20T10:26:33.345Z,100367.43
2019-05-20T10:29:37.046Z,100356.44
2019-05-20T10:32:40.743Z,100368.41
2019-05-20T10:35:44.447Z,100362.56
2019-05-20T10:38:58.634Z,100359.44
2019-05-20T10:41:53.594Z,100368.16
2019-05-20T10:44:57.301Z,100371.54
2019-05-20T10:48:01.071Z,100367.77
2019-05-20T10:51:04.805Z,100362.48
2019-05-20T10:54:08.875Z,100359.80
2019-05-20T10:57:12.671Z,100364.55
2019-05-20T11:00:18.926Z,100367.47
2019-05-20T11:03:22.620Z,100362.94
2019-05-20T11:06:26.328Z,100354.45
2019-05-20T11:09:30.688Z,100354.88
2019-05-20T11:12:34.663Z,100350.86
2019-05-20T11:15:38.364Z,100347.27
2019-05-20T11:18:42.411Z,100345.94
2019-05-20T11:21:46.112Z,100351.48
2019-05-20T11:24:49.799Z,100358.52
2019-05-20T11:27:53.570Z,100349.14
2019-05-20T11:30:57.267Z,100349.55
2019-05-20T11:34:01.573Z,100358.89
2019-05-20T11:37:05.687Z,100352.31
2019-05-20T11:40:11.821Z,100360.87
2019-05-20T11:43:15.906Z,100358.78
2019-05-20T11:46:19.594Z,100353.53
2019-05-20T11:49:23.299Z,100347.73
2019-05-20T11:52:27.304Z,100347.00
2019-05-20T11:55:31.445Z,100345.41
2019-05-20T11:58:35.088Z,100336.52
2019-05-20T12:01:39.110Z,100344.98
2019-05-20T12:04:42.801Z,100345.73
2019-05-20T12:07:46.503Z,100348.25
2019-05-20T12:10:50.201Z,100356.27
2019-05-20T12:13:53.892Z,100354.42
2019-05-20T12:16:57.590Z,100359.77
2019-05-20T12:20:01.376Z,100364.91
2019-05-20T12:23:05.167Z,100366.66
2019-05-20T12:26:09.224Z,100361.80
2019-05-20T12:29:13.201Z,100360.70
2019-05-20T12:32:16.890Z,100360.25
2019-05-20T12:35:21.027Z,100355.05
2019-05-20T12:38:24.717Z,100345.65
2019-05-20T12:41:28.567Z,100350.76
2019-05-20T12:44:32.277Z,100349.80
2019-05-20T12:47:36.265Z,100333.63
2019-05-20T12:50:40.045Z,100338.11
2019-05-20T12:53:43.852Z,100331.21
2019-05-20T12:56:47.513Z,100330.60
2019-05-20T12:59:51.209Z,100338.92
2019-05-20T13:02:54.901Z,100330.77
2019-05-20T13:05:59.158Z,100325.83
2019-05-20T13:09:03.134Z,100321.02
2019-05-20T13:12:07.152Z,100318.22
2019-05-20T13:15:11.787Z,100318.41
2019-05-20T13:18:15.426Z,100320.96
2019-05-20T13:21:19.185Z,100319.66
2019-05-20T13:24:22.829Z,100310.45
2019-05-20T13:27:26.522Z,100311.27
2019-05-20T13:30:30.364Z,100299.50
2019-05-20T13:36:36.962Z,100309.19
2019-05-20T13:39:41.055Z,100299.61
2019-05-20T13:42:44.867Z,100305.14
2019-05-20T13:45:48.645Z,100297.40
2019-05-20T13:48:52.329Z,100302.88
2019-05-20T13:51:56.031Z,100304.53
2019-05-20T13:54:59.731Z,100290.20
2019-05-20T13:58:03.589Z,100294.77
2019-05-20T14:01:07.341Z,100287.09
2019-05-20T14:04:11.350Z,100283.31
2019-05-20T14:07:15.058Z,100277.50
2019-05-20T14:10:19.116Z,100274.88
2019-05-20T14:13:23.089Z,100270.48
2019-05-20T14:16:26.814Z,100271.27
2019-05-20T14:19:30.509Z,100253.81
2019-05-20T14:22:34.547Z,100240.72
2019-05-20T14:25:38.254Z,100241.45
2019-05-20T14:28:41.964Z,100240.87
2019-05-20T14:31:45.840Z,100233.88
2019-05-20T14:34:49.566Z,100226.45
2019-05-20T14:37:53.613Z,100223.94
2019-05-20T14:40:57.323Z,100225.16
2019-05-20T14:44:01.317Z,100228.65
2019-05-20T14:47:05.028Z,100230.62
2019-05-20T14:50:09.219Z,100229.33
2019-05-20T14:53:13.255Z,100233.37
2019-05-20T14:56:17.245Z,100234.08
2019-05-20T14:59:21.282Z,100228.80
2019-05-20T15:02:24.988Z,100241.50
2019-05-20T15:05:28.714Z,100239.12
2019-05-20T15:08:34.378Z,100247.91
2019-05-20T15:11:38.869Z,100240.72
2019-05-20T15:14:42.771Z,100245.53
2019-05-20T15:17:46.486Z,100243.42
2019-05-20T15:20:50.274Z,100241.84
2019-05-20T15:23:53.973Z,100235.40
2019-05-20T15:26:57.683Z,100242.70
2019-05-20T15:30:02.140Z,100237.92
2019-05-20T15:33:05.846Z,100227.53
2019-05-20T15:36:09.534Z,100220.70
2019-05-20T15:39:13.351Z,100222.84
2019-05-20T15:42:17.041Z,100216.91
2019-05-20T15:45:20.918Z,100207.03
2019-05-20T15:48:24.875Z,100198.95
2019-05-20T15:51:28.578Z,100204.27
2019-05-20T15:54:32.282Z,100196.63
2019-05-20T15:57:35.971Z,100202.72
2019-05-20T16:00:39.686Z,100198.33
2019-05-20T16:03:43.396Z,100210.78
2019-05-20T16:06:47.265Z,100209.19
2019-05-20T16:09:51.380Z,100213.29
2019-05-20T16:12:55.093Z,100212.76
2019-05-20T16:15:58.807Z,100224.19
2019-05-20T16:19:02.515Z,100226.63
2019-05-20T16:22:06.652Z,100223.53
2019-05-20T16:25:10.926Z,100217.63
2019-05-20T16:28:15.215Z,100213.65
2019-05-20T16:31:18.917Z,100212.06
2019-05-20T16:34:22.624Z,100209.38
2019-05-20T16:37:46.846Z,100211.48
2019-05-20T16:44:38.810Z,100216.69
2019-05-20T16:47:52.129Z,100216.61
2019-05-20T16:51:09.949Z,100213.27
2019-05-20T16:54:30.728Z,100216.91
2019-05-20T16:57:36.381Z,100211.92
2019-05-20T17:00:40.085Z,100212.92
2019-05-20T17:03:43.852Z,100222.26
2019-05-20T17:06:47.553Z,100229.23
2019-05-20T17:09:51.553Z,100226.83
2019-05-20T17:12:55.363Z,100224.25
2019-05-20T17:15:59.065Z,100233.67
2019-05-20T17:19:02.751Z,100230.98
2019-05-20T17:22:06.725Z,100227.73
2019-05-20T17:25:10.862Z,100230.63
2019-05-20T17:28:14.562Z,100232.39
2019-05-20T17:31:18.268Z,100233.33
2019-05-20T17:34:21.956Z,100238.33
2019-05-20T17:37:25.673Z,100235.28
2019-05-20T17:40:29.818Z,100227.70
2019-05-20T17:43:33.523Z,100232.34
2019-05-20T17:46:37.234Z,100241.72
2019-05-20T17:49:41.006Z,100229.10
2019-05-20T17:52:44.782Z,100233.70
2019-05-20T17:55:48.758Z,100228.25
2019-05-20T17:58:52.450Z,100230.70
2019-05-20T18:01:56.141Z,100227.75
2019-05-20T18:04:59.847Z,100228.64
2019-05-20T18:08:03.541Z,100227.56
2019-05-20T18:11:07.238Z,100227.73
2019-05-20T18:14:11.217Z,100233.55
2019-05-20T18:17:14.985Z,100234.08
2019-05-20T18:20:18.831Z,100233.52
2019-05-20T18:23:22.532Z,100239.53
2019-05-20T18:26:26.220Z,100240.13
2019-05-20T18:29:29.923Z,100249.52
2019-05-20T18:32:33.622Z,100255.25
2019-05-20T18:35:37.323Z,100262.17
2019-05-20T18:38:41.155Z,100258.80
2019-05-20T18:41:44.863Z,100269.17
2019-05-20T18:44:48.562Z,100270.52
2019-05-20T18:47:52.275Z,100272.27
2019-05-20T18:50:55.976Z,100277.67
2019-05-20T18:53:59.762Z,100277.66
2019-05-20T18:57:03.569Z,100271.12
2019-05-20T19:00:08.544Z,100272.81
2019-05-20T19:03:12.249Z,100271.61
2019-05-20T19:06:15.948Z,100275.42
2019-05-20T19:09:19.771Z,100268.63
2019-05-20T19:12:23.476Z,100271.08
2019-05-20T19:15:27.356Z,100273.17
2019-05-20T19:18:31.302Z,100278.32
2019-05-20T19:21:35.019Z,100274.81
2019-05-20T19:24:38.721Z,100272.86
2019-05-20T19:27:42.470Z,100269.19
2019-05-20T19:30:46.176Z,100269.45
2019-05-20T19:33:49.874Z,100261.63
2019-05-20T19:36:53.582Z,100263.98
2019-05-20T19:39:57.304Z,100261.30
2019-05-20T19:43:01.490Z,100257.90
2019-05-20T19:46:05.443Z,100257.19
2019-05-20T19:49:09.722Z,100263.50
2019-05-20T19:52:13.470Z,100256.78
2019-05-20T19:55:18.908Z,100258.75
2019-05-20T19:58:22.711Z,100267.42
2019-05-20T20:01:26.419Z,100280.35
2019-05-20T20:04:30.416Z,100281.82
2019-05-20T20:07:34.405Z,100280.35
2019-05-20T20:10:38.104Z,100272.88
2019-05-20T20:13:41.799Z,100264.70
2019-05-20T20:16:45.806Z,100264.44
2019-05-20T20:19:49.506Z,100263.20
2019-05-20T20:22:53.193Z,100259.55
2019-05-20T20:25:57.276Z,100257.34
2019-05-20T20:29:01.130Z,100250.63
2019-05-20T20:32:04.831Z,100249.19
2019-05-20T20:35:09.301Z,100246.84
2019-05-20T20:38:13.032Z,100243.56
2019-05-20T20:41:16.737Z,100245.89
2019-05-20T20:44:20.448Z,100249.40
2019-05-20T20:47:24.233Z,100252.67
2019-05-20T20:50:28.090Z,100258.89
2019-05-20T20:53:32.496Z,100259.49
2019-05-20T20:56:36.201Z,100260.81
2019-05-20T20:59:39.975Z,100264.02
2019-05-20T21:02:52.973Z,100270.41
2019-05-20T21:05:49.107Z,100271.06
2019-05-20T21:08:53.164Z,100277.02
2019-05-20T21:11:56.872Z,100284.81
2019-05-20T21:15:00.883Z,100279.88
2019-05-20T21:18:04.708Z,100280.28
2019-05-20T21:21:08.731Z,100272.34
2019-05-20T21:24:12.682Z,100267.30
2019-05-20T21:27:16.387Z,100259.34
2019-05-20T21:30:20.160Z,100253.50
2019-05-20T21:33:23.872Z,100242.30
2019-05-20T21:36:27.632Z,100247.16
2019-05-20T21:39:31.339Z,100248.66
2019-05-20T21:42:35.207Z,100244.19
2019-05-20T21:45:38.903Z,100252.32
2019-05-20T21:48:42.609Z,100246.39
2019-05-20T21:51:46.599Z,100247.48
2019-05-20T21:54:50.301Z,100239.02
2019-05-20T21:57:54.022Z,100231.84
2019-05-20T22:00:57.836Z,100230.08
2019-05-20T22:04:01.559Z,100227.55
2019-05-20T22:07:05.516Z,100223.90
2019-05-20T22:10:09.884Z,100212.25
2019-05-20T22:13:13.584Z,100211.13
2019-05-20T22:16:17.865Z,100214.11
2019-05-20T22:19:21.586Z,100212.50
2019-05-20T22:22:36.916Z,100211.43
2019-05-20T22:25:40.622Z,100207.75
2019-05-20T22:28:44.326Z,100205.69
2019-05-20T22:31:48.068Z,100200.20
2019-05-20T22:34:53.877Z,100199.29
2019-05-20T22:37:57.783Z,100198.29
2019-05-20T22:41:01.788Z,100191.30
2019-05-20T22:44:05.485Z,100189.47
2019-05-20T22:47:09.222Z,100188.89
2019-05-20T22:50:12.917Z,100189.68
2019-05-20T22:53:16.614Z,100186.06
2019-05-20T22:56:20.435Z,100181.34
2019-05-20T22:59:24.135Z,100179.55
2019-05-20T23:02:28.127Z,100181.62
2019-05-20T23:05:31.837Z,100189.41
2019-05-20T23:08:35.617Z,100193.76
2019-05-20T23:11:39.325Z,100198.50
2019-05-20T23:14:43.039Z,100191.81
2019-05-20T23:17:46.742Z,100189.89
2019-05-20T23:20:50.451Z,100187.09
2019-05-20T23:23:54.142Z,100179.09
2019-05-20T23:26:58.150Z,100173.16
2019-05-20T23:30:02.350Z,100165.84
2019-05-20T23:33:06.043Z,100160.20
2019-05-20T23:36:10.089Z,100168.56
2019-05-20T23:39:13.777Z,100170.23
2019-05-20T23:42:17.484Z,100174.20
2019-05-20T23:45:21.181Z,100179.16
2019-05-20T23:48:24.869Z,100180.80
2019-05-20T23:51:28.577Z,100185.58
2019-05-20T23:54:32.266Z,100193.48
2019-05-20T23:57:36.365Z,100193.24
